createdAt,value
2022-11-06T00:01:28.122Z,10.07
2022-11-06T00:03:55.751Z,9.60
2022-11-06T00:06:42.738Z,7.57
2022-11-06T00:09:12.753Z,8.43
2022-11-06T00:11:40.881Z,8.63
2022-11-06T00:14:08.886Z,10.05
2022-11-06T00:16:40.453Z,8.70
2022-11-06T00:19:08.251Z,8.27
2022-11-06T00:21:36.149Z,8.30
2022-11-06T00:24:06.129Z,9.40
2022-11-06T00:26:34.232Z,10.30
2022-11-06T00:29:02.409Z,8.10
2022-11-06T00:31:32.127Z,9.68
2022-11-06T00:34:00.758Z,8.35
2022-11-06T00:36:32.453Z,9.07
2022-11-06T00:39:00.215Z,12.13
2022-11-06T00:41:28.371Z,8.52
2022-11-06T00:43:58.182Z,8.48
2022-11-06T00:46:25.911Z,8.95
2022-11-06T00:48:54.192Z,8.68
2022-11-06T00:51:29.964Z,7.50
2022-11-06T00:54:00.307Z,7.87
2022-11-06T00:56:28.118Z,9.13
2022-11-06T00:58:55.455Z,8.60
2022-11-06T01:01:31.316Z,7.30
2022-11-06T01:04:00.995Z,7.78
2022-11-06T01:06:31.409Z,7.72
2022-11-06T01:08:59.278Z,7.55
2022-11-06T01:12:06.709Z,6.70
2022-11-06T01:14:28.172Z,7.53
2022-11-06T01:16:55.500Z,9.30
2022-11-06T01:19:23.736Z,7.70
2022-11-06T01:21:53.006Z,7.35
2022-11-06T01:24:26.329Z,9.60
2022-11-06T01:27:24.341Z,8.80
2022-11-06T01:29:41.569Z,8.50
2022-11-06T01:32:09.458Z,9.32
2022-11-06T01:34:36.849Z,6.85
2022-11-06T01:37:04.408Z,5.93
2022-11-06T01:39:32.026Z,6.97
2022-11-06T01:41:59.416Z,7.40
2022-11-06T01:44:36.017Z,7.05
2022-11-06T01:47:05.656Z,9.82
2022-11-06T01:49:36.385Z,7.40
2022-11-06T01:52:09.355Z,8.57
2022-11-06T01:54:38.966Z,7.15
2022-11-06T01:57:07.262Z,9.10
2022-11-06T01:59:36.847Z,6.93
2022-11-06T02:02:04.866Z,8.50
2022-11-06T02:04:36.177Z,8.20
2022-11-06T02:07:04.014Z,7.47
2022-11-06T02:09:33.354Z,8.23
2022-11-06T02:12:24.262Z,8.85
2022-11-06T02:15:13.394Z,7.00
2022-11-06T02:17:47.900Z,9.90
2022-11-06T02:20:29.333Z,7.62
2022-11-06T02:23:02.437Z,7.70
2022-11-06T02:25:48.716Z,8.57
2022-11-06T02:28:24.906Z,8.27
2022-11-06T02:30:53.498Z,9.60
2022-11-06T02:33:34.491Z,7.85
2022-11-06T02:36:08.837Z,9.18
2022-11-06T02:38:45.363Z,9.32
2022-11-06T02:41:17.095Z,8.32
2022-11-06T02:43:47.250Z,7.80
2022-11-06T02:46:37.722Z,9.45
2022-11-06T02:49:11.060Z,7.50
2022-11-06T02:51:42.642Z,8.73
2022-11-06T02:54:10.765Z,11.73
2022-11-06T02:56:42.166Z,7.25
2022-11-06T02:59:16.969Z,7.15
2022-11-06T03:01:48.411Z,6.75
2022-11-06T03:04:20.335Z,10.38
2022-11-06T03:07:00.034Z,9.53
2022-11-06T03:09:29.503Z,10.23
2022-11-06T03:12:14.822Z,10.63
2022-11-06T03:14:50.474Z,8.20
2022-11-06T03:17:24.472Z,9.05
2022-11-06T03:20:01.653Z,8.68
2022-11-06T03:22:40.483Z,8.38
2022-11-06T03:25:18.703Z,9.60
2022-11-06T03:28:04.420Z,9.07
2022-11-06T03:30:40.641Z,8.05
2022-11-06T03:33:18.534Z,8.57
2022-11-06T03:35:50.701Z,9.45
2022-11-06T03:38:36.139Z,7.85
2022-11-06T03:41:11.351Z,7.97
2022-11-06T03:43:41.168Z,8.38
2022-11-06T03:46:15.632Z,7.97
2022-11-06T03:48:48.010Z,7.93
2022-11-06T03:51:22.582Z,8.55
2022-11-06T03:54:02.795Z,8.82
2022-11-06T03:57:01.658Z,9.23
2022-11-06T03:59:33.891Z,8.45
2022-11-06T04:04:46.119Z,7.55
2022-11-06T04:07:17.459Z,8.25
2022-11-06T04:10:05.987Z,8.18
2022-11-06T04:12:53.442Z,7.37
2022-11-06T04:15:21.715Z,7.65
2022-11-06T04:17:49.031Z,8.75
2022-11-06T04:20:39.535Z,9.23
2022-11-06T04:23:36.721Z,8.23
2022-11-06T04:26:36.121Z,10.50
2022-11-06T04:29:12.794Z,7.93
2022-11-06T04:32:12.657Z,8.23
2022-11-06T04:34:46.912Z,8.13
2022-11-06T04:37:32.095Z,9.15
2022-11-06T04:40:12.615Z,9.20
2022-11-06T04:42:56.723Z,9.02
2022-11-06T04:45:31.076Z,12.70
2022-11-06T04:47:59.741Z,8.15
2022-11-06T04:50:29.101Z,9.60
2022-11-06T04:52:56.486Z,7.85
2022-11-06T04:55:24.107Z,8.40
2022-11-06T04:57:51.666Z,7.37
2022-11-06T05:00:19.003Z,9.30
2022-11-06T05:02:46.338Z,7.03
2022-11-06T05:05:13.915Z,7.30
2022-11-06T05:07:41.251Z,7.50
2022-11-06T05:10:09.681Z,7.20
2022-11-06T05:12:37.244Z,8.05
2022-11-06T05:15:04.850Z,6.85
2022-11-06T05:17:36.297Z,8.18
2022-11-06T05:20:05.256Z,8.52
2022-11-06T05:22:51.096Z,8.10
2022-11-06T05:25:18.652Z,7.70
2022-11-06T05:27:45.941Z,8.30
2022-11-06T05:30:13.332Z,10.00
2022-11-06T05:32:40.867Z,9.15
2022-11-06T05:35:08.490Z,9.68
2022-11-06T05:37:35.821Z,7.25
2022-11-06T05:40:03.674Z,7.53
2022-11-06T05:42:30.962Z,8.20
2022-11-06T05:44:58.260Z,8.98
2022-11-06T05:47:25.813Z,8.93
2022-11-06T05:49:53.106Z,10.40
2022-11-06T05:52:20.474Z,9.77
2022-11-06T05:54:48.037Z,11.07
2022-11-06T05:57:15.401Z,8.55
2022-11-06T05:59:42.806Z,9.68
2022-11-06T06:02:10.706Z,9.55
2022-11-06T06:04:38.407Z,8.68
2022-11-06T06:07:05.708Z,9.98
2022-11-06T06:09:33.021Z,10.07
2022-11-06T06:12:00.637Z,9.35
2022-11-06T06:14:27.938Z,9.60
2022-11-06T06:16:55.230Z,8.63
2022-11-06T06:19:22.785Z,9.90
2022-11-06T06:21:50.079Z,8.73
2022-11-06T06:24:17.519Z,11.75
2022-11-06T06:26:45.236Z,9.80
2022-11-06T06:29:12.533Z,13.45
2022-11-06T06:31:39.873Z,9.00
2022-11-06T06:34:07.542Z,10.25
2022-11-06T06:36:34.920Z,13.32
2022-11-06T06:39:02.219Z,8.63
2022-11-06T06:41:29.810Z,9.52
2022-11-06T06:43:57.107Z,9.07
2022-11-06T06:46:24.434Z,9.57
2022-11-06T06:48:52.001Z,9.55
2022-11-06T06:51:23.756Z,8.63
2022-11-06T06:53:52.034Z,10.10
2022-11-06T06:56:19.398Z,9.30
2022-11-06T06:58:46.842Z,10.98
2022-11-06T07:01:14.629Z,12.20
2022-11-06T07:03:42.046Z,10.13
2022-11-06T07:06:09.350Z,11.43
2022-11-06T07:08:37.259Z,9.93
2022-11-06T07:11:07.154Z,11.25
2022-11-06T07:13:36.366Z,11.75
2022-11-06T07:16:09.140Z,10.65
2022-11-06T07:18:37.831Z,8.15
2022-11-06T07:21:09.850Z,10.88
2022-11-06T07:23:37.197Z,12.35
2022-11-06T07:26:05.974Z,12.00
2022-11-06T07:28:33.578Z,11.45
2022-11-06T07:31:02.540Z,14.25
2022-11-06T07:33:30.316Z,10.80
2022-11-06T07:36:05.823Z,12.10
2022-11-06T07:38:34.927Z,11.57
2022-11-06T07:41:04.497Z,12.80
2022-11-06T07:43:32.061Z,12.13
2022-11-06T07:46:01.649Z,13.35
2022-11-06T07:48:29.997Z,12.93
2022-11-06T07:50:57.879Z,13.00
2022-11-06T07:53:25.526Z,9.55
2022-11-06T07:55:54.864Z,12.35
2022-11-06T07:58:23.753Z,10.98
2022-11-06T08:00:53.312Z,11.85
2022-11-06T08:03:21.757Z,11.43
2022-11-06T08:05:49.514Z,11.40
2022-11-06T08:08:17.078Z,12.27
2022-11-06T08:10:44.737Z,11.20
2022-11-06T08:13:13.220Z,14.05
2022-11-06T08:15:41.331Z,12.45
2022-11-06T08:18:09.942Z,13.85
2022-11-06T08:20:39.043Z,14.32
2022-11-06T08:23:08.599Z,10.95
2022-11-06T08:25:36.228Z,12.18
2022-11-06T08:28:03.870Z,13.05
2022-11-06T08:30:32.056Z,14.02
2022-11-06T08:33:05.163Z,12.50
2022-11-06T08:35:34.184Z,12.52
2022-11-06T08:38:02.377Z,13.25
2022-11-06T08:40:31.338Z,12.15
2022-11-06T08:43:00.348Z,12.80
2022-11-06T08:45:28.186Z,11.85
2022-11-06T08:47:55.481Z,12.18
2022-11-06T08:50:22.786Z,11.68
2022-11-06T08:52:50.339Z,13.00
2022-11-06T08:55:17.647Z,13.00
2022-11-06T08:57:44.934Z,12.20
2022-11-06T09:00:13.134Z,17.10
2022-11-06T09:02:40.438Z,16.10
2022-11-06T09:05:08.623Z,17.27
2022-11-06T09:07:36.210Z,17.80
2022-11-06T09:10:04.156Z,15.32
2022-11-06T09:12:31.532Z,13.75
2022-11-06T09:14:59.119Z,14.23
2022-11-06T09:17:26.481Z,13.68
2022-11-06T09:19:53.834Z,13.82
2022-11-06T09:22:21.430Z,12.18
2022-11-06T09:25:03.047Z,19.75
2022-11-06T09:27:31.695Z,13.10
2022-11-06T09:29:59.042Z,13.32
2022-11-06T09:32:26.350Z,13.48
2022-11-06T09:34:53.990Z,15.43
2022-11-06T09:37:21.309Z,13.73
2022-11-06T09:39:48.625Z,12.95
2022-11-06T09:42:29.445Z,12.13
2022-11-06T09:45:11.851Z,13.68
2022-11-06T09:47:41.895Z,11.80
2022-11-06T09:50:16.709Z,8.98
2022-11-06T09:52:53.652Z,13.30
2022-11-06T09:55:23.571Z,11.63
2022-11-06T09:58:05.463Z,13.93
2022-11-06T10:00:32.785Z,12.02
2022-11-06T10:03:14.471Z,10.80
2022-11-06T10:05:43.003Z,11.87
2022-11-06T10:08:17.438Z,12.93
2022-11-06T10:11:16.474Z,10.30
2022-11-06T10:13:44.051Z,11.88
2022-11-06T10:16:22.606Z,11.20
2022-11-06T10:19:07.825Z,12.10
2022-11-06T10:21:49.501Z,11.23
2022-11-06T10:24:20.094Z,9.85
2022-11-06T10:26:55.887Z,15.45
2022-11-06T10:29:49.314Z,11.95
2022-11-06T10:32:34.773Z,12.93
2022-11-06T10:35:12.154Z,10.60
2022-11-06T10:37:48.680Z,10.45
2022-11-06T10:40:23.407Z,8.85
2022-11-06T10:43:00.223Z,9.00
2022-11-06T10:45:28.619Z,12.65
2022-11-06T10:48:00.175Z,13.60
2022-11-06T10:50:37.145Z,19.62
2022-11-06T10:53:09.339Z,12.50
2022-11-06T10:55:41.997Z,14.05
2022-11-06T10:58:29.995Z,14.48
2022-11-06T11:01:01.726Z,13.05
2022-11-06T11:03:52.354Z,12.80
2022-11-06T11:06:19.991Z,11.20
2022-11-06T11:08:49.034Z,12.05
2022-11-06T11:11:20.546Z,9.70
2022-11-06T11:14:14.331Z,8.57
2022-11-06T11:16:45.008Z,8.80
2022-11-06T11:19:38.298Z,9.93
2022-11-06T11:22:21.164Z,10.35
2022-11-06T11:25:02.772Z,8.45
2022-11-06T11:27:32.339Z,9.68
2022-11-06T11:30:00.025Z,9.68
2022-11-06T11:32:29.310Z,8.10
2022-11-06T11:34:57.368Z,8.60
2022-11-06T11:37:30.072Z,8.82
2022-11-06T11:40:29.375Z,10.23
2022-11-06T11:43:15.957Z,10.93
2022-11-06T11:45:43.310Z,15.50
2022-11-06T11:48:14.154Z,13.43
2022-11-06T11:50:41.730Z,10.73
2022-11-06T11:53:18.525Z,11.63
2022-11-06T11:55:48.625Z,11.23
2022-11-06T11:58:20.862Z,11.43
2022-11-06T12:00:52.000Z,12.73
2022-11-06T12:03:20.657Z,11.85
2022-11-06T12:05:48.105Z,13.45
2022-11-06T12:08:24.058Z,13.68
2022-11-06T12:10:51.801Z,12.68
2022-11-06T12:13:24.019Z,9.63
2022-11-06T12:16:00.374Z,9.23
2022-11-06T12:18:34.416Z,9.00
2022-11-06T12:21:23.240Z,12.73
2022-11-06T12:23:56.382Z,10.25
2022-11-06T12:26:40.047Z,10.73
2022-11-06T12:29:24.767Z,12.05
2022-11-06T12:31:56.802Z,10.40
2022-11-06T12:34:35.423Z,10.38
2022-11-06T12:37:15.192Z,9.50
2022-11-06T12:39:44.527Z,11.07
2022-11-06T12:42:12.710Z,11.90
2022-11-06T12:44:40.120Z,10.63
2022-11-06T12:47:43.042Z,10.73
2022-11-06T12:50:46.044Z,12.65
2022-11-06T12:53:27.584Z,9.95
2022-11-06T12:56:12.931Z,12.77
2022-11-06T12:58:45.392Z,11.93
2022-11-06T13:01:43.992Z,14.93
2022-11-06T13:04:26.420Z,12.77
2022-11-06T13:07:13.429Z,9.30
2022-11-06T13:10:03.804Z,10.35
2022-11-06T13:12:44.091Z,10.68
2022-11-06T13:15:22.142Z,13.68
2022-11-06T13:18:00.520Z,12.60
2022-11-06T13:20:43.847Z,13.93
2022-11-06T13:23:29.565Z,14.57
2022-11-06T13:26:05.527Z,11.07
2022-11-06T13:28:47.289Z,13.15
2022-11-06T13:31:17.909Z,11.02
2022-11-06T13:33:49.456Z,10.90
2022-11-06T13:36:18.665Z,9.55
2022-11-06T13:39:21.242Z,12.68
2022-11-06T13:41:48.661Z,10.43
2022-11-06T13:44:17.083Z,10.88
2022-11-06T13:46:56.875Z,12.18
2022-11-06T13:49:55.920Z,11.95
2022-11-06T13:52:51.624Z,14.18
2022-11-06T13:55:36.571Z,14.00
2022-11-06T13:58:28.289Z,11.48
2022-11-06T14:01:14.761Z,12.80
2022-11-06T14:04:12.612Z,12.55
2022-11-06T14:06:40.816Z,12.23
2022-11-06T14:09:19.361Z,13.88
2022-11-06T14:11:53.423Z,10.98
2022-11-06T14:14:20.863Z,12.68
2022-11-06T14:17:09.784Z,12.23
2022-11-06T14:19:37.983Z,12.77
2022-11-06T14:22:08.345Z,13.62
2022-11-06T14:24:36.961Z,15.77
2022-11-06T14:27:08.957Z,13.00
2022-11-06T14:29:36.116Z,14.43
2022-11-06T14:32:16.820Z,13.52
2022-11-06T14:34:44.462Z,13.70
2022-11-06T14:37:17.773Z,13.82
2022-11-06T14:39:51.579Z,13.27
2022-11-06T14:42:30.384Z,14.75
2022-11-06T14:45:11.936Z,13.93
2022-11-06T14:47:41.472Z,16.58
2022-11-06T14:50:18.062Z,15.90
2022-11-06T14:52:51.038Z,17.17
2022-11-06T14:55:41.035Z,16.27
2022-11-06T14:58:18.812Z,14.48
2022-11-06T15:00:51.180Z,13.23
2022-11-06T15:03:38.563Z,12.15
2022-11-06T15:06:17.950Z,12.98
2022-11-06T15:08:45.189Z,14.00
2022-11-06T15:11:30.901Z,18.33
2022-11-06T15:14:06.126Z,17.15
2022-11-06T15:16:43.457Z,15.75
2022-11-06T15:19:26.493Z,16.92
2022-11-06T15:22:12.232Z,31.05
2022-11-06T15:24:52.485Z,30.73
2022-11-06T15:27:22.574Z,28.48
2022-11-06T15:29:52.822Z,33.55
2022-11-06T15:32:26.312Z,35.35
2022-11-06T15:35:01.362Z,30.80
2022-11-06T15:37:37.912Z,27.98
2022-11-06T15:40:05.853Z,34.05
2022-11-06T15:42:37.239Z,30.55
2022-11-06T15:45:12.748Z,30.23
2022-11-06T15:47:40.536Z,29.37
2022-11-06T15:50:19.642Z,31.85
2022-11-06T15:52:48.742Z,32.05
2022-11-06T15:55:25.658Z,39.22
2022-11-06T15:57:53.918Z,45.58
2022-11-06T16:00:24.489Z,52.85
2022-11-06T16:02:57.790Z,55.78
2022-11-06T16:05:27.675Z,49.60
2022-11-06T16:07:56.711Z,46.28
2022-11-06T16:10:24.416Z,46.08
2022-11-06T16:12:53.915Z,52.78
2022-11-06T16:15:49.649Z,50.05
2022-11-06T16:18:35.703Z,59.15
2022-11-06T16:21:11.603Z,66.32
2022-11-06T16:23:45.001Z,60.78
2022-11-06T16:26:15.856Z,60.33
2022-11-06T16:28:44.584Z,63.22
2022-11-06T16:31:18.033Z,66.78
2022-11-06T16:34:02.470Z,74.40
2022-11-06T16:36:31.836Z,91.72
2022-11-06T16:39:17.723Z,96.57
2022-11-06T16:42:25.641Z,94.72
2022-11-06T16:45:08.071Z,90.95
2022-11-06T16:47:35.922Z,70.82
2022-11-06T16:50:06.929Z,61.72
2022-11-06T16:52:38.732Z,55.33
2022-11-06T16:55:17.029Z,55.05
2022-11-06T16:57:53.442Z,42.22
2022-11-06T17:00:20.947Z,42.47
2022-11-06T17:02:54.658Z,47.90
2022-11-06T17:05:24.515Z,48.87
2022-11-06T17:08:29.054Z,43.60
2022-11-06T17:10:57.954Z,63.87
2022-11-06T17:13:31.642Z,43.08
2022-11-06T17:16:04.669Z,32.40
2022-11-06T17:18:34.417Z,27.02
2022-11-06T17:21:04.950Z,26.45
2022-11-06T17:23:33.456Z,25.85
2022-11-06T17:26:06.830Z,26.55
2022-11-06T17:28:34.401Z,27.25
2022-11-06T17:31:02.932Z,28.83
2022-11-06T17:33:30.227Z,24.67
2022-11-06T17:35:57.843Z,22.48
2022-11-06T17:38:25.139Z,23.65
2022-11-06T17:40:52.445Z,24.77
2022-11-06T17:43:20.039Z,25.17
2022-11-06T17:45:49.852Z,40.88
2022-11-06T17:48:18.226Z,57.33
2022-11-06T17:51:04.510Z,52.75
2022-11-06T17:53:32.060Z,46.08
2022-11-06T17:56:03.785Z,41.88
2022-11-06T17:58:31.290Z,37.38
2022-11-06T18:01:10.134Z,38.60
2022-11-06T18:03:43.402Z,33.55
2022-11-06T18:06:12.014Z,42.60
2022-11-06T18:08:39.778Z,45.67
2022-11-06T18:11:07.766Z,45.47
2022-11-06T18:13:35.430Z,41.40
2022-11-06T18:16:03.434Z,37.45
2022-11-06T18:18:31.000Z,37.78
2022-11-06T18:20:58.479Z,35.10
2022-11-06T18:23:26.094Z,40.60
2022-11-06T18:25:57.139Z,39.35
2022-11-06T18:28:25.200Z,46.37
2022-11-06T18:30:53.017Z,45.40
2022-11-06T18:33:20.624Z,46.03
2022-11-06T18:35:47.935Z,44.17
2022-11-06T18:38:16.647Z,43.78
2022-11-06T18:40:50.227Z,42.28
2022-11-06T18:43:19.195Z,42.72
2022-11-06T18:45:46.536Z,50.28
2022-11-06T18:48:18.322Z,39.08
2022-11-06T18:50:48.935Z,40.78
2022-11-06T18:53:16.498Z,48.87
2022-11-06T18:55:45.820Z,38.97
2022-11-06T18:58:13.874Z,38.17
2022-11-06T19:00:41.350Z,33.90
2022-11-06T19:03:08.737Z,35.75
2022-11-06T19:05:36.341Z,34.90
2022-11-06T19:08:04.863Z,31.02
2022-11-06T19:10:32.522Z,33.05
2022-11-06T19:13:00.129Z,31.77
2022-11-06T19:15:27.450Z,35.70
2022-11-06T19:17:54.943Z,35.33
2022-11-06T19:20:22.703Z,41.88
2022-11-06T19:22:51.201Z,37.70
2022-11-06T19:25:19.129Z,34.60
2022-11-06T19:27:47.244Z,35.33
2022-11-06T19:30:15.359Z,39.70
2022-11-06T19:32:43.703Z,40.53
2022-11-06T19:35:13.712Z,39.35
2022-11-06T19:37:41.518Z,43.75
2022-11-06T19:40:09.104Z,42.42
2022-11-06T19:42:36.991Z,38.13
2022-11-06T19:45:05.623Z,40.35
2022-11-06T19:47:33.003Z,37.40
2022-11-06T19:50:01.583Z,41.10
2022-11-06T19:52:41.828Z,47.45
2022-11-06T19:55:26.291Z,47.25
2022-11-06T19:57:57.827Z,40.30
2022-11-06T20:00:25.406Z,44.72
2022-11-06T20:02:52.986Z,41.83
2022-11-06T20:05:20.705Z,42.03
2022-11-06T20:07:48.033Z,45.30
2022-11-06T20:10:15.625Z,44.65
2022-11-06T20:12:42.975Z,42.90
2022-11-06T20:15:10.471Z,44.22
2022-11-06T20:17:38.070Z,50.25
2022-11-06T20:20:06.075Z,47.67
2022-11-06T20:22:33.413Z,44.25
2022-11-06T20:25:01.011Z,40.97
2022-11-06T20:27:28.555Z,37.78
2022-11-06T20:29:55.858Z,27.80
2022-11-06T20:32:23.498Z,28.50
2022-11-06T20:34:51.518Z,30.40
2022-11-06T20:37:18.869Z,24.98
2022-11-06T20:39:46.436Z,27.73
2022-11-06T20:42:13.769Z,29.00
2022-11-06T20:44:41.116Z,30.10
2022-11-06T20:47:08.691Z,32.67
2022-11-06T20:49:38.865Z,31.40
2022-11-06T20:52:15.269Z,30.25
2022-11-06T20:54:47.253Z,28.58
2022-11-06T20:57:15.962Z,28.52
2022-11-06T20:59:43.633Z,28.85
2022-11-06T21:02:11.617Z,28.42
2022-11-06T21:04:39.075Z,24.55
2022-11-06T21:07:06.663Z,31.67
2022-11-06T21:09:34.011Z,39.30
2022-11-06T21:12:01.350Z,49.33
2022-11-06T21:14:29.198Z,47.58
2022-11-06T21:16:57.106Z,36.15
2022-11-06T21:19:24.650Z,37.00
2022-11-06T21:21:56.557Z,33.97
2022-11-06T21:24:24.571Z,30.90
2022-11-06T21:26:55.091Z,35.67
2022-11-06T21:29:23.848Z,28.25
2022-11-06T21:31:51.775Z,25.77
2022-11-06T21:34:19.495Z,26.90
2022-11-06T21:36:47.476Z,25.50
2022-11-06T21:39:17.549Z,22.27
2022-11-06T21:41:45.461Z,20.95
2022-11-06T21:44:15.255Z,20.35
2022-11-06T21:46:45.697Z,22.05
2022-11-06T21:49:14.944Z,22.10
2022-11-06T21:51:43.433Z,20.33
2022-11-06T21:54:30.899Z,24.92
2022-11-06T21:56:58.706Z,19.75
2022-11-06T21:59:27.835Z,20.17
2022-11-06T22:01:55.801Z,21.30
2022-11-06T22:04:23.564Z,19.17
2022-11-06T22:06:52.544Z,18.62
2022-11-06T22:09:24.987Z,19.50
2022-11-06T22:11:53.644Z,17.20
2022-11-06T22:14:20.984Z,14.07
2022-11-06T22:16:51.171Z,14.52
2022-11-06T22:19:18.805Z,14.38
2022-11-06T22:21:46.143Z,17.52
2022-11-06T22:24:14.065Z,17.25
2022-11-06T22:26:41.685Z,18.62
2022-11-06T22:29:11.790Z,16.35
2022-11-06T22:31:39.191Z,24.17
2022-11-06T22:34:06.779Z,20.42
2022-11-06T22:36:36.389Z,19.23
2022-11-06T22:39:05.184Z,19.35
2022-11-06T22:41:32.777Z,16.25
2022-11-06T22:44:00.532Z,19.10
2022-11-06T22:46:28.976Z,18.92
2022-11-06T22:48:57.303Z,16.92
2022-11-06T22:51:29.891Z,19.08
2022-11-06T22:53:58.023Z,18.20
2022-11-06T22:56:26.881Z,16.67
2022-11-06T22:58:55.542Z,17.98
2022-11-06T23:01:24.914Z,19.62
2022-11-06T23:03:56.672Z,18.05
2022-11-06T23:06:25.444Z,18.58
2022-11-06T23:08:53.254Z,19.75
2022-11-06T23:11:22.089Z,22.50
2022-11-06T23:13:49.938Z,22.33
2022-11-06T23:16:40.998Z,23.73
2022-11-06T23:19:09.723Z,19.75
2022-11-06T23:21:37.363Z,19.15
2022-11-06T23:24:05.889Z,20.17
2022-11-06T23:26:33.674Z,21.35
2022-11-06T23:29:01.013Z,19.42
2022-11-06T23:31:28.516Z,17.48
2022-11-06T23:33:56.312Z,17.60
2022-11-06T23:36:23.670Z,18.80
2022-11-06T23:38:53.685Z,20.77
2022-11-06T23:41:40.081Z,20.12
2022-11-06T23:44:27.476Z,18.50
2022-11-06T23:46:55.165Z,18.40
2022-11-06T23:49:22.799Z,18.65
2022-11-06T23:51:50.199Z,22.85
2022-11-06T23:54:17.791Z,18.95
2022-11-06T23:56:45.104Z,18.70
2022-11-06T23:59:12.820Z,16.40
